Time;durP1;ratioP1;P1;durP2;ratioP2;P2;SDS_P1;SDS_P2;PMS_P1;PMS_P2;Temp;Humidity;BMP_temperature;BMP_pressure;BME280_temperature;BME280_humidity;BME280_pressure;Samples;Min_cycle;Max_cycle;Signal;HPM_P1;HPM_P2
2023/05/18 00:01:17;;;;;;;;;;;10.30;93.70;;;;;;5113581;28;19922;-47
2023/05/18 00:03:42;;;;;;;;;;;10.30;93.40;;;;;;5112867;28;20282;-44
2023/05/18 00:06:08;;;;;;;;;;;10.30;93.60;;;;;;5113262;28;19912;-45
2023/05/18 00:08:34;;;;;;;;;;;10.30;93.80;;;;;;5113490;28;20384;-44
2023/05/18 00:11:00;;;;;;;;;;;10.30;94.20;;;;;;5111995;28;19911;-44
2023/05/18 00:13:26;;;;;;;;;;;10.30;94.00;;;;;;5112496;28;19912;-45
2023/05/18 00:15:51;;;;;;;;;;;10.30;93.40;;;;;;5112643;28;20317;-44
2023/05/18 00:18:17;;;;;;;;;;;10.20;93.90;;;;;;5111534;28;20009;-43
2023/05/18 00:20:42;;;;;;;;;;;10.20;93.90;;;;;;5113309;28;19919;-44
2023/05/18 00:23:09;;;;;;;;;;;10.20;93.90;;;;;;5113450;28;20010;-44
2023/05/18 00:25:35;;;;;;;;;;;10.20;94.00;;;;;;5112548;28;19919;-44
2023/05/18 00:28:00;;;;;;;;;;;10.20;94.50;;;;;;5113028;28;19911;-44
2023/05/18 00:30:26;;;;;;;;;;;10.20;94.60;;;;;;5113122;28;20010;-44
2023/05/18 00:32:51;;;;;;;;;;;10.20;94.40;;;;;;5112303;28;19908;-45
2023/05/18 00:35:17;;;;;;;;;;;10.20;94.80;;;;;;5113509;28;19911;-44
2023/05/18 00:37:42;;;;;;;;;;;10.20;94.90;;;;;;5112895;28;19908;-45
2023/05/18 00:40:08;;;;;;;;;;;10.10;95.00;;;;;;5112377;28;19968;-46
2023/05/18 00:42:33;;;;;;;;;;;10.20;94.70;;;;;;5113097;28;19975;-45
2023/05/18 00:44:59;;;;;;;;;;;10.20;94.40;;;;;;5111960;28;20267;-44
2023/05/18 00:47:26;;;;;;;;;;;10.10;94.80;;;;;;5113103;28;20006;-46
2023/05/18 00:49:51;;;;;;;;;;;10.10;95.20;;;;;;5112994;28;19908;-45
2023/05/18 00:52:17;;;;;;;;;;;10.10;96.00;;;;;;5112513;28;19916;-45
2023/05/18 00:54:43;;;;;;;;;;;10.10;95.10;;;;;;5113045;28;19907;-47
2023/05/18 00:57:08;;;;;;;;;;;10.10;94.80;;;;;;5128970;28;20370;-45
2023/05/18 00:59:34;;;;;;;;;;;10.10;95.20;;;;;;5131853;28;19923;-44
2023/05/18 01:02:00;;;;;;;;;;;10.10;96.00;;;;;;5136283;27;19919;-46
2023/05/18 01:04:26;;;;;;;;;;;10.10;96.00;;;;;;5134818;27;19912;-45
2023/05/18 01:06:55;;;;;;;;;;;10.00;96.10;;;;;;5116159;28;20003;-44
2023/05/18 01:09:21;;;;;;;;;;;10.10;96.20;;;;;;5116888;28;19920;-47
2023/05/18 01:12:03;;;;;;;;;;;10.00;96.40;;;;;;5116962;28;19961;-45
2023/05/18 01:14:36;;;;;;;;;;;10.00;96.30;;;;;;5115971;28;19914;-45
2023/05/18 01:17:20;;;;;;;;;;;10.00;96.70;;;;;;5116870;28;19908;-46
2023/05/18 01:19:49;;;;;;;;;;;10.00;96.60;;;;;;5116702;28;20320;-47
2023/05/18 01:22:33;;;;;;;;;;;9.90;96.60;;;;;;5097629;28;20267;-44
2023/05/18 01:25:03;;;;;;;;;;;9.90;96.40;;;;;;5116771;28;19908;-44
2023/05/18 01:27:36;;;;;;;;;;;9.90;96.60;;;;;;5115818;28;19912;-44
2023/05/18 01:30:03;;;;;;;;;;;9.90;96.60;;;;;;5116697;28;19908;-44
2023/05/18 01:32:28;;;;;;;;;;;9.80;96.90;;;;;;5116557;28;19998;-45
2023/05/18 01:34:53;;;;;;;;;;;9.80;97.10;;;;;;5121192;27;20469;-45
2023/05/18 01:37:19;;;;;;;;;;;9.80;96.90;;;;;;5136853;27;19914;-46
2023/05/18 01:39:45;;;;;;;;;;;9.80;96.50;;;;;;5136983;27;19915;-47
2023/05/18 01:42:13;;;;;;;;;;;9.80;97.30;;;;;;5136196;27;19918;-44
2023/05/18 01:44:45;;;;;;;;;;;9.70;97.30;;;;;;5136285;27;19915;-45
2023/05/18 01:47:12;;;;;;;;;;;9.70;97.10;;;;;;5136583;27;19915;-46
2023/05/18 01:49:53;;;;;;;;;;;9.70;97.30;;;;;;5135939;27;19911;-45
2023/05/18 01:52:39;;;;;;;;;;;9.70;97.40;;;;;;5136714;27;19993;-44
2023/05/18 01:55:05;;;;;;;;;;;9.60;97.70;;;;;;5118412;27;19913;-44
2023/05/18 01:57:32;;;;;;;;;;;9.60;97.50;;;;;;5135600;27;19912;-44
2023/05/18 01:59:58;;;;;;;;;;;9.60;97.30;;;;;;5136418;27;19919;-45
2023/05/18 02:02:25;;;;;;;;;;;9.60;97.50;;;;;;5133846;27;19959;-44
2023/05/18 02:04:50;;;;;;;;;;;9.60;97.70;;;;;;5136164;27;19915;-44
2023/05/18 02:07:16;;;;;;;;;;;9.60;97.00;;;;;;5136856;27;20386;-44
2023/05/18 02:09:43;;;;;;;;;;;9.60;97.80;;;;;;5135459;27;19918;-44
2023/05/18 02:12:08;;;;;;;;;;;9.50;97.90;;;;;;5136089;27;19915;-45
2023/05/18 02:14:34;;;;;;;;;;;9.60;97.90;;;;;;5135690;27;19912;-44
2023/05/18 02:16:59;;;;;;;;;;;9.50;98.10;;;;;;5135545;27;19915;-44
2023/05/18 02:19:25;;;;;;;;;;;9.50;97.90;;;;;;5135987;27;19916;-45
2023/05/18 02:21:50;;;;;;;;;;;9.40;98.40;;;;;;5136111;27;19911;-46
2023/05/18 02:24:19;;;;;;;;;;;9.40;98.20;;;;;;5135312;27;19912;-45
2023/05/18 02:26:44;;;;;;;;;;;9.40;97.10;;;;;;5134402;27;19950;-44
2023/05/18 02:29:13;;;;;;;;;;;9.40;97.60;;;;;;5117559;27;19967;-44
2023/05/18 02:31:39;;;;;;;;;;;9.30;97.80;;;;;;5114473;28;19907;-46
2023/05/18 02:34:04;;;;;;;;;;;9.40;97.30;;;;;;5115023;28;20328;-44
2023/05/18 02:36:35;;;;;;;;;;;9.30;97.60;;;;;;5115438;28;19911;-44
2023/05/18 02:39:03;;;;;;;;;;;9.30;97.40;;;;;;5114481;28;19920;-44
2023/05/18 02:41:28;;;;;;;;;;;9.20;97.80;;;;;;5115154;28;19907;-44
2023/05/18 02:43:53;;;;;;;;;;;9.20;98.00;;;;;;5115111;28;19908;-44
2023/05/18 02:46:19;;;;;;;;;;;9.20;98.10;;;;;;5114281;28;20255;-45
2023/05/18 02:48:44;;;;;;;;;;;9.20;97.80;;;;;;5115076;28;19908;-45
2023/05/18 02:51:10;;;;;;;;;;;9.20;97.60;;;;;;5115039;28;19915;-45
2023/05/18 02:53:36;;;;;;;;;;;9.10;98.10;;;;;;5114161;28;20372;-45
2023/05/18 02:56:02;;;;;;;;;;;9.10;98.30;;;;;;5114737;28;20292;-44
2023/05/18 02:58:28;;;;;;;;;;;9.10;98.60;;;;;;5115066;27;20419;-45
2023/05/18 03:00:58;;;;;;;;;;;9.10;98.60;;;;;;5114105;28;19911;-44
2023/05/18 03:03:24;;;;;;;;;;;9.10;98.20;;;;;;5114719;28;19923;-44
2023/05/18 03:05:52;;;;;;;;;;;9.10;98.70;;;;;;5114145;28;19911;-45
2023/05/18 03:08:19;;;;;;;;;;;9.10;99.00;;;;;;5135043;27;20376;-44
2023/05/18 03:10:44;;;;;;;;;;;9.10;99.30;;;;;;5135235;27;19957;-45
2023/05/18 03:13:10;;;;;;;;;;;9.10;99.40;;;;;;5134533;27;19959;-45
2023/05/18 03:15:36;;;;;;;;;;;9.00;99.00;;;;;;5135005;27;19907;-45
2023/05/18 03:18:02;;;;;;;;;;;9.00;98.70;;;;;;5135048;27;19924;-45
2023/05/18 03:20:30;;;;;;;;;;;9.00;98.90;;;;;;5134250;27;19907;-47
2023/05/18 03:22:56;;;;;;;;;;;9.00;98.80;;;;;;5134918;27;19907;-45
2023/05/18 03:25:21;;;;;;;;;;;9.00;99.40;;;;;;5133775;27;20014;-44
2023/05/18 03:27:47;;;;;;;;;;;9.00;99.60;;;;;;5133641;27;19934;-46
2023/05/18 03:30:12;;;;;;;;;;;9.00;99.50;;;;;;5124615;27;19911;-45
2023/05/18 03:32:40;;;;;;;;;;;9.00;99.90;;;;;;5134745;27;20005;-44
2023/05/18 03:35:05;;;;;;;;;;;9.00;99.90;;;;;;5133782;27;19933;-46
2023/05/18 03:37:31;;;;;;;;;;;9.00;99.90;;;;;;5134661;27;19908;-45
2023/05/18 03:40:09;;;;;;;;;;;9.00;99.90;;;;;;5134549;27;19968;-44
2023/05/18 03:42:35;;;;;;;;;;;8.90;99.90;;;;;;5133913;27;20392;-47
2023/05/18 03:45:01;;;;;;;;;;;9.00;99.90;;;;;;5134645;27;19946;-44
2023/05/18 03:47:26;;;;;;;;;;;9.00;99.90;;;;;;5134613;27;20281;-46
2023/05/18 03:49:52;;;;;;;;;;;9.00;99.90;;;;;;5133647;27;20354;-44
2023/05/18 03:52:21;;;;;;;;;;;9.10;99.90;;;;;;5134088;27;19968;-44
2023/05/18 03:54:49;;;;;;;;;;;9.10;99.90;;;;;;5134485;27;20002;-44
2023/05/18 03:57:15;;;;;;;;;;;9.10;99.90;;;;;;5128944;27;20041;-45
2023/05/18 03:59:42;;;;;;;;;;;9.10;99.80;;;;;;5113290;28;19916;-46
2023/05/18 04:02:07;;;;;;;;;;;9.10;99.70;;;;;;5112087;28;19908;-44
2023/05/18 04:04:33;;;;;;;;;;;9.10;99.40;;;;;;5112776;28;19915;-45
2023/05/18 04:07:00;;;;;;;;;;;9.10;99.40;;;;;;5129154;27;19915;-44
2023/05/18 04:09:26;;;;;;;;;;;9.10;99.90;;;;;;5132406;27;19907;-45
2023/05/18 04:11:52;;;;;;;;;;;9.10;99.90;;;;;;5133068;27;20444;-44
2023/05/18 04:14:19;;;;;;;;;;;9.10;99.90;;;;;;5133338;27;19994;-44
2023/05/18 04:16:45;;;;;;;;;;;9.10;99.90;;;;;;5133105;27;20301;-44
2023/05/18 04:19:12;;;;;;;;;;;9.20;99.90;;;;;;5133722;27;19925;-44
2023/05/18 04:21:42;;;;;;;;;;;9.20;99.90;;;;;;5133849;27;19907;-44
2023/05/18 04:24:08;;;;;;;;;;;9.20;99.90;;;;;;5133057;27;19907;-44
2023/05/18 04:26:35;;;;;;;;;;;9.20;99.60;;;;;;5133872;27;19908;-44
2023/05/18 04:29:01;;;;;;;;;;;9.20;99.20;;;;;;5133232;27;19915;-45
2023/05/18 04:31:28;;;;;;;;;;;9.20;99.20;;;;;;5133079;27;19977;-44
2023/05/18 04:33:54;;;;;;;;;;;9.20;99.20;;;;;;5133607;27;19941;-44
2023/05/18 04:36:19;;;;;;;;;;;9.20;99.10;;;;;;5133506;27;20258;-43
2023/05/18 04:38:45;;;;;;;;;;;9.20;98.90;;;;;;5132900;27;20407;-43
2023/05/18 04:41:11;;;;;;;;;;;9.20;99.60;;;;;;5133805;27;19912;-44
2023/05/18 04:43:36;;;;;;;;;;;9.20;99.90;;;;;;5133757;28;19907;-44
2023/05/18 04:46:02;;;;;;;;;;;9.30;99.90;;;;;;5132971;28;19984;-44
2023/05/18 04:48:28;;;;;;;;;;;9.30;99.90;;;;;;5133600;28;19915;-44
2023/05/18 04:50:54;;;;;;;;;;;9.30;99.70;;;;;;5133676;28;19908;-45
2023/05/18 04:53:21;;;;;;;;;;;9.30;99.40;;;;;;5132911;28;19947;-44
2023/05/18 04:55:50;;;;;;;;;;;9.30;99.60;;;;;;5132735;28;19911;-44
2023/05/18 04:58:15;;;;;;;;;;;9.40;99.90;;;;;;5119501;28;19930;-45
2023/05/18 05:00:41;;;;;;;;;;;9.40;99.60;;;;;;5112885;28;19908;-44
2023/05/18 05:03:06;;;;;;;;;;;9.50;99.60;;;;;;5112845;28;19969;-44
2023/05/18 05:05:32;;;;;;;;;;;9.50;99.60;;;;;;5115988;28;20156;-44
2023/05/18 05:07:58;;;;;;;;;;;9.50;99.40;;;;;;5133483;28;20281;-44
2023/05/18 05:10:23;;;;;;;;;;;9.60;99.40;;;;;;5133262;28;19908;-44
2023/05/18 05:12:49;;;;;;;;;;;9.60;99.10;;;;;;5132730;28;20346;-45
2023/05/18 05:15:15;;;;;;;;;;;9.60;99.20;;;;;;5133001;28;19994;-44
2023/05/18 05:17:40;;;;;;;;;;;9.70;99.10;;;;;;5133304;28;19938;-44
2023/05/18 05:20:06;;;;;;;;;;;9.70;99.10;;;;;;5132468;28;19922;-44
2023/05/18 05:22:32;;;;;;;;;;;9.70;99.00;;;;;;5133302;28;19952;-45
2023/05/18 05:24:57;;;;;;;;;;;9.70;99.10;;;;;;5133252;28;19908;-44
2023/05/18 05:27:25;;;;;;;;;;;9.80;99.30;;;;;;5132042;28;20277;-46
2023/05/18 05:29:50;;;;;;;;;;;9.80;99.70;;;;;;5133339;28;20359;-44
2023/05/18 05:32:16;;;;;;;;;;;9.90;99.80;;;;;;5133198;28;19980;-44
2023/05/18 05:34:46;;;;;;;;;;;9.90;99.70;;;;;;5131892;28;19919;-44
2023/05/18 05:37:12;;;;;;;;;;;10.00;99.30;;;;;;5133145;28;20273;-45
2023/05/18 05:39:38;;;;;;;;;;;10.00;98.80;;;;;;5133043;28;19922;-45
2023/05/18 05:42:05;;;;;;;;;;;10.00;98.80;;;;;;5132157;28;19907;-45
2023/05/18 05:44:30;;;;;;;;;;;10.00;98.40;;;;;;5133134;28;19994;-44
2023/05/18 05:46:56;;;;;;;;;;;10.10;98.70;;;;;;5133076;27;19954;-45
2023/05/18 05:49:21;;;;;;;;;;;10.10;98.80;;;;;;5135359;27;19908;-44
2023/05/18 05:51:47;;;;;;;;;;;10.10;98.60;;;;;;5121814;27;20269;-44
2023/05/18 05:54:13;;;;;;;;;;;10.20;98.70;;;;;;5116213;28;20322;-44
2023/05/18 05:56:38;;;;;;;;;;;10.20;99.10;;;;;;5115299;28;19907;-44
2023/05/18 05:59:04;;;;;;;;;;;10.20;98.80;;;;;;5115990;28;19915;-45
2023/05/18 06:01:29;;;;;;;;;;;10.20;98.70;;;;;;5115104;28;20380;-45
2023/05/18 06:03:55;;;;;;;;;;;10.30;99.10;;;;;;5116107;28;20411;-45
2023/05/18 06:06:20;;;;;;;;;;;10.30;99.00;;;;;;5115781;28;20010;-45
2023/05/18 06:08:46;;;;;;;;;;;10.30;98.50;;;;;;5115296;28;19912;-45
2023/05/18 06:11:11;;;;;;;;;;;10.30;98.00;;;;;;5115948;28;19907;-45
2023/05/18 06:13:37;;;;;;;;;;;10.40;97.90;;;;;;5115770;28;19919;-44
2023/05/18 06:16:02;;;;;;;;;;;10.40;98.10;;;;;;5123492;27;20440;-45
2023/05/18 06:18:28;;;;;;;;;;;10.50;97.70;;;;;;5125900;27;20015;-45
2023/05/18 06:20:53;;;;;;;;;;;10.50;97.10;;;;;;5124534;27;19911;-44
2023/05/18 06:23:21;;;;;;;;;;;10.50;96.80;;;;;;5134546;27;19918;-44
2023/05/18 06:25:47;;;;;;;;;;;10.60;97.20;;;;;;5136108;27;19915;-44
2023/05/18 06:28:13;;;;;;;;;;;10.60;97.00;;;;;;5136149;27;19907;-46
2023/05/18 06:30:38;;;;;;;;;;;10.70;96.60;;;;;;5134728;27;20312;-45
2023/05/18 06:33:04;;;;;;;;;;;10.70;96.40;;;;;;5137975;27;19915;-44
2023/05/18 06:35:29;;;;;;;;;;;10.80;96.20;;;;;;5122404;27;19912;-43
2023/05/18 06:37:55;;;;;;;;;;;10.80;96.10;;;;;;5124398;27;19907;-44
2023/05/18 06:40:20;;;;;;;;;;;10.80;96.50;;;;;;5123995;27;19969;-42
2023/05/18 06:42:46;;;;;;;;;;;10.90;96.40;;;;;;5114946;28;19908;-44
2023/05/18 06:45:11;;;;;;;;;;;10.90;95.80;;;;;;5114027;28;19914;-42
2023/05/18 06:47:37;;;;;;;;;;;11.00;96.10;;;;;;5118105;27;19916;-46
2023/05/18 06:50:03;;;;;;;;;;;11.10;95.80;;;;;;5128517;27;19911;-44
2023/05/18 06:52:28;;;;;;;;;;;11.20;95.20;;;;;;5123586;27;20003;-44
2023/05/18 06:54:54;;;;;;;;;;;11.20;95.30;;;;;;5122555;27;19908;-44
2023/05/18 06:57:20;;;;;;;;;;;11.30;95.30;;;;;;5125443;27;20022;-44
2023/05/18 06:59:49;;;;;;;;;;;11.40;95.10;;;;;;5118169;27;20393;-43
2023/05/18 07:02:14;;;;;;;;;;;11.50;95.30;;;;;;5117233;27;19922;-44
2023/05/18 07:04:40;;;;;;;;;;;11.60;94.50;;;;;;5135169;27;20306;-43
2023/05/18 07:07:06;;;;;;;;;;;11.70;94.40;;;;;;5134612;27;19907;-44
2023/05/18 07:09:31;;;;;;;;;;;11.70;94.60;;;;;;5135134;27;20010;-43
2023/05/18 07:11:57;;;;;;;;;;;11.80;93.80;;;;;;5128687;27;19999;-44
2023/05/18 07:14:22;;;;;;;;;;;11.90;94.50;;;;;;5134730;27;20392;-45
2023/05/18 07:16:48;;;;;;;;;;;11.90;93.90;;;;;;5135024;27;19911;-44
2023/05/18 07:19:13;;;;;;;;;;;11.90;93.10;;;;;;5133993;27;19923;-44
2023/05/18 07:21:39;;;;;;;;;;;11.90;93.30;;;;;;5128897;27;19915;-44
2023/05/18 07:24:05;;;;;;;;;;;12.00;93.20;;;;;;5133998;27;20362;-44
2023/05/18 07:26:31;;;;;;;;;;;12.00;93.30;;;;;;5133079;27;19930;-46
2023/05/18 07:28:56;;;;;;;;;;;12.00;92.90;;;;;;5133862;27;20339;-44
2023/05/18 07:31:22;;;;;;;;;;;12.10;92.60;;;;;;5133797;27;19908;-44
2023/05/18 07:33:47;;;;;;;;;;;12.10;92.60;;;;;;5145573;27;19961;-45
2023/05/18 07:36:13;;;;;;;;;;;12.00;92.50;;;;;;5134356;27;20417;-45
2023/05/18 07:38:39;;;;;;;;;;;12.00;92.50;;;;;;5153863;27;19915;-43
2023/05/18 07:41:04;;;;;;;;;;;12.00;92.10;;;;;;5149379;27;19919;-44
2023/05/18 07:43:30;;;;;;;;;;;12.00;92.40;;;;;;5122541;27;19914;-45
2023/05/18 07:45:55;;;;;;;;;;;12.10;92.40;;;;;;5132400;27;19918;-46
2023/05/18 07:48:21;;;;;;;;;;;12.20;91.90;;;;;;5133392;27;20001;-44
2023/05/18 07:50:46;;;;;;;;;;;12.20;92.00;;;;;;5134396;27;20323;-45
2023/05/18 07:53:12;;;;;;;;;;;12.30;91.60;;;;;;5134301;27;19907;-45
2023/05/18 07:55:37;;;;;;;;;;;12.30;91.40;;;;;;5133199;27;19911;-46
2023/05/18 07:58:03;;;;;;;;;;;12.30;91.70;;;;;;5135577;27;19988;-44
2023/05/18 08:00:29;;;;;;;;;;;12.30;91.40;;;;;;5136501;27;19924;-46
2023/05/18 08:02:55;;;;;;;;;;;12.30;91.20;;;;;;5140062;27;20266;-46
2023/05/18 08:05:21;;;;;;;;;;;12.30;91.60;;;;;;5146698;27;20052;-46
2023/05/18 08:07:47;;;;;;;;;;;12.40;92.00;;;;;;5140692;27;19918;-46
2023/05/18 08:10:12;;;;;;;;;;;12.40;92.30;;;;;;5145772;27;19911;-44
2023/05/18 08:12:38;;;;;;;;;;;12.30;91.70;;;;;;5133260;27;20092;-45
2023/05/18 08:15:03;;;;;;;;;;;12.30;91.70;;;;;;5136372;27;19962;-48
2023/05/18 08:17:29;;;;;;;;;;;12.30;91.60;;;;;;5147935;27;19957;-45
2023/05/18 08:19:55;;;;;;;;;;;12.20;92.10;;;;;;5134041;27;19915;-44
2023/05/18 08:22:21;;;;;;;;;;;12.20;91.90;;;;;;5117890;27;19916;-45
2023/05/18 08:24:46;;;;;;;;;;;12.10;91.60;;;;;;5114545;27;19911;-44
2023/05/18 08:27:12;;;;;;;;;;;12.10;91.70;;;;;;5138948;27;19958;-43
2023/05/18 08:29:37;;;;;;;;;;;12.10;92.00;;;;;;5149697;27;20353;-44
2023/05/18 08:32:04;;;;;;;;;;;12.10;92.30;;;;;;5135306;27;19915;-43
2023/05/18 08:34:30;;;;;;;;;;;12.20;92.20;;;;;;5130224;27;19955;-44
2023/05/18 08:36:56;;;;;;;;;;;12.40;92.50;;;;;;5112353;28;20005;-45
2023/05/18 08:39:21;;;;;;;;;;;12.50;92.00;;;;;;5112846;28;19920;-44
2023/05/18 08:41:49;;;;;;;;;;;12.70;91.50;;;;;;5112998;28;19960;-45
2023/05/18 08:44:19;;;;;;;;;;;12.90;92.10;;;;;;5112029;28;19908;-44
2023/05/18 08:46:49;;;;;;;;;;;13.00;91.60;;;;;;5112863;28;19934;-44
2023/05/18 08:49:16;;;;;;;;;;;13.20;91.00;;;;;;5112827;28;19949;-44
2023/05/18 08:51:44;;;;;;;;;;;13.30;91.30;;;;;;5115203;28;19912;-45
2023/05/18 08:54:10;;;;;;;;;;;13.40;90.90;;;;;;5121151;28;20375;-45
2023/05/18 08:56:37;;;;;;;;;;;13.40;88.60;;;;;;5122282;28;19968;-45
2023/05/18 08:59:06;;;;;;;;;;;13.40;90.10;;;;;;5120535;28;19923;-45
2023/05/18 09:01:32;;;;;;;;;;;13.50;90.40;;;;;;5133287;28;19912;-45
2023/05/18 09:03:58;;;;;;;;;;;13.60;90.10;;;;;;5130540;28;19918;-46
2023/05/18 09:06:25;;;;;;;;;;;13.60;90.40;;;;;;5125595;27;19915;-44
2023/05/18 09:08:51;;;;;;;;;;;13.60;88.70;;;;;;5111671;28;19908;-44
2023/05/18 09:11:17;;;;;;;;;;;13.70;87.40;;;;;;5117527;28;19911;-44
2023/05/18 09:13:43;;;;;;;;;;;13.80;87.90;;;;;;5131321;27;19916;-44
2023/05/18 09:16:08;;;;;;;;;;;14.10;88.30;;;;;;5129218;28;19912;-44
2023/05/18 09:18:34;;;;;;;;;;;14.30;87.70;;;;;;5112895;28;19963;-47
2023/05/18 09:20:59;;;;;;;;;;;14.40;88.60;;;;;;5132654;28;20373;-45
2023/05/18 09:23:25;;;;;;;;;;;14.40;87.70;;;;;;5133317;27;19907;-46
2023/05/18 09:25:51;;;;;;;;;;;14.40;85.20;;;;;;5130924;27;19922;-45
2023/05/18 09:28:29;;;;;;;;;;;14.50;85.60;;;;;;5123756;27;19911;-43
2023/05/18 09:30:55;;;;;;;;;;;14.60;84.50;;;;;;5153466;27;19907;-43
2023/05/18 09:33:22;;;;;;;;;;;14.90;86.60;;;;;;5136841;27;19972;-45
2023/05/18 09:35:48;;;;;;;;;;;15.10;85.20;;;;;;5123331;27;19934;-45
2023/05/18 09:38:16;;;;;;;;;;;15.10;81.30;;;;;;5117074;28;19908;-46
2023/05/18 09:40:45;;;;;;;;;;;15.00;83.00;;;;;;5117181;27;19908;-44
2023/05/18 09:43:10;;;;;;;;;;;15.10;83.00;;;;;;5136849;27;19918;-45
2023/05/18 09:45:40;;;;;;;;;;;15.10;83.70;;;;;;5136136;27;19912;-44
2023/05/18 09:48:06;;;;;;;;;;;15.10;81.50;;;;;;5137174;27;19928;-44
2023/05/18 09:50:31;;;;;;;;;;;15.10;82.70;;;;;;5137479;27;19915;-45
2023/05/18 09:52:59;;;;;;;;;;;15.10;81.30;;;;;;5137506;27;20273;-45
2023/05/18 09:55:24;;;;;;;;;;;15.10;82.70;;;;;;5136529;27;20341;-44
2023/05/18 09:57:50;;;;;;;;;;;15.20;82.30;;;;;;5137448;27;19915;-45
2023/05/18 10:00:17;;;;;;;;;;;15.30;81.10;;;;;;5136123;27;19916;-45
2023/05/18 10:02:47;;;;;;;;;;;15.40;81.60;;;;;;5139960;27;19964;-46
2023/05/18 10:05:20;;;;;;;;;;;15.50;83.10;;;;;;5146265;27;19911;-44
2023/05/18 10:07:46;;;;;;;;;;;15.60;82.70;;;;;;5122045;27;19918;-44
2023/05/18 10:10:11;;;;;;;;;;;15.60;79.30;;;;;;5144168;27;19915;-46
2023/05/18 10:12:40;;;;;;;;;;;15.60;80.80;;;;;;5140692;27;19923;-45
2023/05/18 10:15:08;;;;;;;;;;;15.70;81.30;;;;;;5147332;27;19914;-45
2023/05/18 10:17:36;;;;;;;;;;;15.70;80.70;;;;;;5157654;27;20415;-45
2023/05/18 10:20:04;;;;;;;;;;;15.70;78.90;;;;;;5157548;27;20534;-44
2023/05/18 10:22:33;;;;;;;;;;;15.80;81.50;;;;;;5156971;27;19907;-44
2023/05/18 10:25:00;;;;;;;;;;;15.60;78.90;;;;;;5157515;27;19907;-45
2023/05/18 10:27:26;;;;;;;;;;;15.40;79.00;;;;;;5157435;27;19914;-45
2023/05/18 10:29:53;;;;;;;;;;;15.40;79.50;;;;;;5156991;27;19917;-44
2023/05/18 10:32:19;;;;;;;;;;;15.50;79.80;;;;;;5157344;27;19907;-45
2023/05/18 10:34:45;;;;;;;;;;;15.50;78.30;;;;;;5147455;27;19927;-47
2023/05/18 10:37:11;;;;;;;;;;;15.60;79.80;;;;;;5115473;28;19915;-46
2023/05/18 10:39:36;;;;;;;;;;;15.70;79.60;;;;;;5115236;28;19938;-45
2023/05/18 10:42:03;;;;;;;;;;;15.90;78.90;;;;;;5116003;28;20339;-47
2023/05/18 10:44:29;;;;;;;;;;;15.90;78.70;;;;;;5115904;27;20011;-47
2023/05/18 10:46:55;;;;;;;;;;;16.00;78.20;;;;;;5115894;28;20273;-46
2023/05/18 10:49:22;;;;;;;;;;;16.10;80.10;;;;;;5124471;27;20001;-48
2023/05/18 10:51:48;;;;;;;;;;;16.20;78.50;;;;;;5138523;27;19958;-45
2023/05/18 10:54:14;;;;;;;;;;;16.30;77.10;;;;;;5136035;27;20463;-44
2023/05/18 10:56:41;;;;;;;;;;;16.40;78.50;;;;;;5135423;27;19915;-45
2023/05/18 10:59:07;;;;;;;;;;;16.50;77.50;;;;;;5134674;27;19962;-45
2023/05/18 11:01:33;;;;;;;;;;;16.40;74.00;;;;;;5135237;27;19938;-46
2023/05/18 11:04:04;;;;;;;;;;;16.40;75.00;;;;;;5134711;27;19907;-45
2023/05/18 11:06:32;;;;;;;;;;;16.40;75.10;;;;;;5116040;27;19912;-44
2023/05/18 11:08:58;;;;;;;;;;;16.40;75.50;;;;;;5114550;28;19908;-46
2023/05/18 11:11:28;;;;;;;;;;;16.40;76.80;;;;;;5114291;28;19908;-47
2023/05/18 11:13:59;;;;;;;;;;;16.50;76.80;;;;;;5115033;27;19912;-44
2023/05/18 11:16:31;;;;;;;;;;;16.60;78.10;;;;;;5115100;28;19908;-43
2023/05/18 11:19:03;;;;;;;;;;;16.70;75.70;;;;;;5114490;28;20401;-46
2023/05/18 11:21:31;;;;;;;;;;;16.70;75.10;;;;;;5114532;28;19914;-45
2023/05/18 11:24:12;;;;;;;;;;;16.70;74.30;;;;;;5133948;27;20011;-44
2023/05/18 11:26:38;;;;;;;;;;;16.70;73.10;;;;;;5134741;27;20392;-44
2023/05/18 11:29:14;;;;;;;;;;;16.80;73.20;;;;;;5135566;27;19907;-45
2023/05/18 11:31:47;;;;;;;;;;;16.80;73.50;;;;;;5135335;27;19914;-45
2023/05/18 11:34:31;;;;;;;;;;;16.90;75.70;;;;;;5134723;27;20002;-46
2023/05/18 11:36:57;;;;;;;;;;;17.00;74.00;;;;;;5119824;27;19911;-45
2023/05/18 11:39:23;;;;;;;;;;;17.00;73.60;;;;;;5139535;27;19923;-44
2023/05/18 11:41:59;;;;;;;;;;;17.20;74.70;;;;;;5125063;27;20142;-46
2023/05/18 11:44:26;;;;;;;;;;;17.40;73.70;;;;;;5120998;27;19930;-45
2023/05/18 11:46:53;;;;;;;;;;;17.50;72.70;;;;;;5117148;27;20316;-44
2023/05/18 11:49:19;;;;;;;;;;;17.60;74.20;;;;;;5118099;27;19934;-45
2023/05/18 11:51:57;;;;;;;;;;;17.70;70.00;;;;;;5128552;27;20425;-46
2023/05/18 11:54:23;;;;;;;;;;;17.70;71.90;;;;;;5121214;27;19968;-45
2023/05/18 11:56:54;;;;;;;;;;;17.70;70.70;;;;;;5124244;27;19979;-45
2023/05/18 11:59:30;;;;;;;;;;;17.70;69.80;;;;;;5122516;27;20247;-44
2023/05/18 12:01:58;;;;;;;;;;;17.70;70.90;;;;;;5113778;28;20425;-44
2023/05/18 12:04:25;;;;;;;;;;;17.70;70.80;;;;;;5110070;27;19911;-46
2023/05/18 12:06:51;;;;;;;;;;;17.70;70.10;;;;;;5133891;27;19911;-46
2023/05/18 12:09:17;;;;;;;;;;;17.70;68.80;;;;;;5133886;27;20444;-44
2023/05/18 12:11:43;;;;;;;;;;;17.70;69.30;;;;;;5134641;27;19990;-45
2023/05/18 12:14:10;;;;;;;;;;;17.70;69.40;;;;;;5134390;27;19953;-44
2023/05/18 12:16:36;;;;;;;;;;;17.80;70.10;;;;;;5132507;27;19911;-46
2023/05/18 12:19:01;;;;;;;;;;;17.90;71.80;;;;;;5125248;27;19920;-44
2023/05/18 12:21:27;;;;;;;;;;;18.00;72.10;;;;;;5133832;27;20319;-45
2023/05/18 12:23:56;;;;;;;;;;;18.10;71.80;;;;;;5134523;27;19946;-45
2023/05/18 12:26:24;;;;;;;;;;;18.20;69.60;;;;;;5135921;27;19915;-44
2023/05/18 12:28:56;;;;;;;;;;;18.20;69.40;;;;;;5141317;27;19953;-45
2023/05/18 12:31:22;;;;;;;;;;;18.30;70.00;;;;;;5155001;27;19911;-45
2023/05/18 12:33:48;;;;;;;;;;;18.40;68.60;;;;;;5154803;27;19919;-46
2023/05/18 12:36:13;;;;;;;;;;;18.60;70.00;;;;;;5140065;27;19994;-45
2023/05/18 12:38:39;;;;;;;;;;;18.80;69.90;;;;;;5113594;28;19972;-46
2023/05/18 12:41:05;;;;;;;;;;;19.00;68.30;;;;;;5113521;28;19908;-44
2023/05/18 12:43:34;;;;;;;;;;;19.10;68.30;;;;;;5113075;28;20071;-46
2023/05/18 12:46:03;;;;;;;;;;;19.20;67.30;;;;;;5113694;28;19957;-45
2023/05/18 12:48:36;;;;;;;;;;;19.20;66.00;;;;;;5113322;28;20259;-45
2023/05/18 12:51:01;;;;;;;;;;;19.40;65.60;;;;;;5113125;28;19908;-47
2023/05/18 12:53:38;;;;;;;;;;;19.50;66.30;;;;;;5113431;28;20339;-45
2023/05/18 12:56:08;;;;;;;;;;;19.40;63.60;;;;;;5113532;28;19915;-45
2023/05/18 12:58:33;;;;;;;;;;;19.50;65.40;;;;;;5116368;28;20007;-46
2023/05/18 13:01:05;;;;;;;;;;;19.50;64.20;;;;;;5117904;28;20041;-45
2023/05/18 13:03:32;;;;;;;;;;;19.50;64.00;;;;;;5117240;28;19947;-45
2023/05/18 13:06:01;;;;;;;;;;;19.60;63.60;;;;;;5120935;27;19914;-44
2023/05/18 13:08:27;;;;;;;;;;;19.70;64.30;;;;;;5129384;27;19911;-44
2023/05/18 13:10:52;;;;;;;;;;;19.90;65.80;;;;;;5116711;27;19908;-45
2023/05/18 13:13:18;;;;;;;;;;;20.20;64.80;;;;;;5123842;27;20376;-45
2023/05/18 13:15:43;;;;;;;;;;;20.50;65.90;;;;;;5146847;27;19917;-46
2023/05/18 13:18:09;;;;;;;;;;;20.60;63.30;;;;;;5157860;27;19911;-45
2023/05/18 13:20:39;;;;;;;;;;;20.80;64.10;;;;;;5139422;27;19916;-45
2023/05/18 13:23:09;;;;;;;;;;;21.10;63.50;;;;;;5137948;27;19919;-44
2023/05/18 13:25:34;;;;;;;;;;;21.20;63.00;;;;;;5137393;27;19915;-45
2023/05/18 13:28:01;;;;;;;;;;;21.40;63.30;;;;;;5137874;27;19907;-45
2023/05/18 13:30:26;;;;;;;;;;;21.50;62.10;;;;;;5137436;27;20002;-47
2023/05/18 13:32:52;;;;;;;;;;;21.70;61.90;;;;;;5136934;27;19951;-46
2023/05/18 13:35:18;;;;;;;;;;;21.80;60.30;;;;;;5137842;27;20002;-47
2023/05/18 13:37:45;;;;;;;;;;;22.00;61.70;;;;;;5135959;27;20032;-44
2023/05/18 13:40:12;;;;;;;;;;;22.20;62.50;;;;;;5136997;27;19922;-46
2023/05/18 13:42:38;;;;;;;;;;;22.50;60.00;;;;;;5137263;27;19912;-45
2023/05/18 13:45:03;;;;;;;;;;;22.50;60.60;;;;;;5137506;27;19908;-45
2023/05/18 13:47:29;;;;;;;;;;;22.50;59.60;;;;;;5136843;27;20354;-45
2023/05/18 13:49:54;;;;;;;;;;;22.60;59.80;;;;;;5137446;27;19907;-45
2023/05/18 13:52:20;;;;;;;;;;;22.60;59.20;;;;;;5137215;27;19911;-45
2023/05/18 13:54:45;;;;;;;;;;;22.70;59.00;;;;;;5140620;27;19915;-45
2023/05/18 13:57:11;;;;;;;;;;;22.70;60.50;;;;;;5148685;27;19960;-48
2023/05/18 13:59:36;;;;;;;;;;;22.60;59.20;;;;;;5157683;27;19915;-44
2023/05/18 14:02:02;;;;;;;;;;;22.60;58.60;;;;;;5157514;27;19911;-45
2023/05/18 14:04:27;;;;;;;;;;;22.50;58.60;;;;;;5136624;27;19914;-46
2023/05/18 14:06:54;;;;;;;;;;;22.60;59.60;;;;;;5148071;27;19911;-45
2023/05/18 14:09:23;;;;;;;;;;;22.70;57.10;;;;;;5150495;27;19964;-47
2023/05/18 14:11:49;;;;;;;;;;;22.90;58.70;;;;;;5154343;27;19957;-45
2023/05/18 14:14:14;;;;;;;;;;;23.10;57.00;;;;;;5153542;27;19955;-44
2023/05/18 14:16:40;;;;;;;;;;;23.10;57.90;;;;;;5151926;27;19918;-44
2023/05/18 14:19:05;;;;;;;;;;;23.00;57.50;;;;;;5145063;27;20340;-44